Time;durP1;ratioP1;P1;durP2;ratioP2;P2;SDS_P1;SDS_P2;PMS_P1;PMS_P2;Temp;Humidity;BMP_temperature;BMP_pressure;BME280_temperature;BME280_humidity;BME280_pressure;Samples;Min_cycle;Max_cycle;Signal;HPM_P1;HPM_P2
2022/08/05 00:00:10;;;;;;;10.60;7.88;;;;;;;17.14;100.00;101301.63;5266976;28;20513;-68
2022/08/05 00:02:41;;;;;;;15.18;9.68;;;;;;;17.10;100.00;101302.94;5264324;28;20032;-68
2022/08/05 00:05:12;;;;;;;15.85;9.25;;;;;;;17.08;100.00;101297.69;5260806;28;20483;-68
2022/08/05 00:07:44;;;;;;;12.75;9.07;;;;;;;17.07;100.00;101300.53;5254698;28;20024;-68
2022/08/05 00:10:15;;;;;;;11.60;8.55;;;;;;;17.08;100.00;101297.69;5264971;28;20508;-68
2022/08/05 00:12:46;;;;;;;14.13;8.77;;;;;;;17.03;100.00;101295.44;5263920;28;20028;-68
2022/08/05 00:15:18;;;;;;;13.68;9.68;;;;;;;16.99;100.00;101301.28;5262636;28;20510;-68
2022/08/05 00:17:49;;;;;;;17.35;10.25;;;;;;;17.00;100.00;101309.22;5255263;28;20556;-67
2022/08/05 00:20:20;;;;;;;13.63;9.57;;;;;;;17.01;100.00;101310.94;5257597;28;20051;-68
2022/08/05 00:22:52;;;;;;;16.17;9.98;;;;;;;17.01;100.00;101302.84;5256947;28;20028;-67
2022/08/05 00:25:23;;;;;;;15.38;9.63;;;;;;;17.02;100.00;101301.81;5265533;28;20037;-68
2022/08/05 00:27:54;;;;;;;17.10;10.35;;;;;;;17.10;100.00;101294.84;5261315;28;20033;-68
2022/08/05 00:30:25;;;;;;;13.05;9.95;;;;;;;17.10;100.00;101298.38;5257541;28;20072;-68
2022/08/05 00:32:57;;;;;;;17.58;10.55;;;;;;;17.12;100.00;101304.47;5254601;28;20024;-68
2022/08/05 00:35:28;;;;;;;13.95;10.13;;;;;;;17.32;100.00;101302.56;5253729;28;20029;-68
2022/08/05 00:38:00;;;;;;;16.25;10.85;;;;;;;17.18;100.00;101314.69;5249400;28;20024;-68
2022/08/05 00:40:32;;;;;;;15.77;10.43;;;;;;;17.18;100.00;101322.78;5254689;28;20371;-67
2022/08/05 00:43:04;;;;;;;18.15;11.15;;;;;;;17.17;100.00;101314.84;5259673;28;20025;-68
2022/08/05 00:45:35;;;;;;;15.45;10.85;;;;;;;17.15;100.00;101311.44;5250827;28;21294;-68
2022/08/05 00:48:07;;;;;;;14.38;10.43;;;;;;;17.14;100.00;101312.44;5252932;28;21343;-68
2022/08/05 00:50:40;;;;;;;15.27;10.43;;;;;;;17.15;100.00;101298.78;5259572;28;20032;-67
2022/08/05 00:53:12;;;;;;;18.75;10.30;;;;;;;17.18;100.00;101284.16;5253907;28;20028;-68
2022/08/05 00:55:43;;;;;;;18.15;11.00;;;;;;;17.15;100.00;101300.66;5251361;28;20523;-68
2022/08/05 00:58:15;;;;;;;14.18;10.48;;;;;;;17.17;100.00;101304.88;5264158;28;20034;-68
2022/08/05 01:00:47;;;;;;;15.15;10.93;;;;;;;17.17;100.00;101301.34;5258560;28;20495;-68
2022/08/05 01:03:18;;;;;;;16.67;10.55;;;;;;;17.14;100.00;101304.34;5256483;28;20032;-67
2022/08/05 01:05:50;;;;;;;14.05;10.93;;;;;;;17.15;100.00;101297.97;5273450;28;20408;-68
2022/08/05 01:08:22;;;;;;;15.23;11.50;;;;;;;17.15;100.00;101309.59;5254333;28;20024;-68
2022/08/05 01:11:27;;;;;;;16.38;11.35;;;;;;;17.11;100.00;101318.97;5252849;28;20074;-67
2022/08/05 01:14:05;;;;;;;16.00;10.32;;;;;;;17.14;100.00;101329.44;5265826;28;20036;-68
2022/08/05 01:16:44;;;;;;;21.23;11.55;;;;;;;17.14;100.00;101342.94;5254941;28;20058;-68
2022/08/05 01:19:22;;;;;;;14.60;10.10;;;;;;;17.11;100.00;101354.03;5257056;28;20281;-68
2022/08/05 01:22:23;;;;;;;13.60;10.02;;;;;;;17.15;100.00;101371.59;5263870;28;20032;-67
2022/08/05 01:25:16;;;;;;;18.25;10.20;;;;;;;17.18;100.00;101387.50;5259702;28;20036;-68
2022/08/05 01:28:15;;;;;;;16.30;9.95;;;;;;;17.17;100.00;101396.56;5258443;28;20068;-67
2022/08/05 01:30:53;;;;;;;16.92;9.65;;;;;;;17.19;100.00;101393.72;5260164;28;20414;-68
2022/08/05 01:33:31;;;;;;;16.05;9.57;;;;;;;17.17;100.00;101376.84;5264473;28;20075;-67
2022/08/05 01:36:09;;;;;;;18.67;9.57;;;;;;;17.19;100.00;101356.81;5258353;28;20028;-67
2022/08/05 01:38:43;;;;;;;18.90;9.90;;;;;;;17.21;100.00;101357.53;5262896;28;20079;-67
2022/08/05 01:41:17;;;;;;;16.43;9.23;;;;;;;17.21;100.00;101364.78;5262689;28;20494;-68
2022/08/05 01:43:50;;;;;;;16.75;9.35;;;;;;;17.20;100.00;101372.03;5275396;28;20032;-67
2022/08/05 01:46:23;;;;;;;15.70;8.85;;;;;;;17.20;100.00;101376.53;5273413;28;20033;-67
2022/08/05 01:48:56;;;;;;;16.58;9.25;;;;;;;17.22;100.00;101379.94;5255834;28;20449;-67
2022/08/05 01:51:32;;;;;;;17.20;9.80;;;;;;;17.29;100.00;101370.25;5266897;28;20456;-67
2022/08/05 01:54:07;;;;;;;14.43;9.15;;;;;;;17.29;100.00;101370.25;5264352;28;20298;-67
2022/08/05 01:56:40;;;;;;;13.63;8.85;;;;;;;17.39;100.00;101367.53;5266735;28;20036;-68
2022/08/05 01:59:15;;;;;;;14.63;8.93;;;;;;;17.24;100.00;101359.09;5260261;28;20508;-67
2022/08/05 02:01:50;;;;;;;15.07;9.27;;;;;;;17.38;100.00;101344.25;5253564;28;20435;-68
2022/08/05 02:04:25;;;;;;;15.07;8.77;;;;;;;17.27;100.00;101323.72;5263850;28;20071;-68
2022/08/05 02:06:57;;;;;;;12.25;8.65;;;;;;;17.25;100.00;101296.88;5272098;28;20028;-68
2022/08/05 02:09:29;;;;;;;12.75;9.07;;;;;;;17.30;100.00;101299.16;5268229;28;20055;-67
2022/08/05 02:12:09;;;;;;;14.82;8.70;;;;;;;17.23;100.00;101301.59;5264011;28;20028;-68
2022/08/05 02:14:48;;;;;;;14.25;8.32;;;;;;;17.24;100.00;101302.47;5267394;28;20043;-67
2022/08/05 02:17:37;;;;;;;12.73;8.35;;;;;;;17.20;100.00;101344.19;5260150;28;20511;-67
2022/08/05 02:20:16;;;;;;;13.90;7.90;;;;;;;17.21;100.00;101348.59;5266086;28;20036;-68
2022/08/05 02:22:59;;;;;;;15.93;9.02;;;;;;;17.28;100.00;101303.84;5262670;28;20117;-67
2022/08/05 02:25:34;;;;;;;16.73;8.40;;;;;;;17.20;100.00;101319.91;5261431;28;20039;-67
2022/08/05 02:28:07;;;;;;;14.15;8.65;;;;;;;17.27;100.00;101345.28;5258576;28;20032;-67
2022/08/05 02:30:44;;;;;;;14.30;7.28;;;;;;;17.20;100.00;101352.28;5257595;28;20024;-68
2022/08/05 02:33:19;;;;;;;17.08;8.13;;;;;;;17.18;100.00;101352.44;5260511;28;20040;-67
2022/08/05 02:35:55;;;;;;;13.52;8.23;;;;;;;17.25;100.00;101353.53;5261406;28;20028;-67
2022/08/05 02:38:29;;;;;;;13.77;7.80;;;;;;;17.17;100.00;101358.81;5261215;28;20032;-68
2022/08/05 02:41:02;;;;;;;13.00;7.80;;;;;;;17.24;100.00;101367.19;5255876;28;20392;-67
2022/08/05 02:43:38;;;;;;;13.63;7.72;;;;;;;17.18;100.00;101365.06;5254498;28;20463;-67
2022/08/05 02:46:15;;;;;;;13.25;7.55;;;;;;;17.17;100.00;101358.81;5263329;28;20036;-68
2022/08/05 02:48:47;;;;;;;17.30;8.40;;;;;;;17.19;100.00;101353.28;5257813;28;20098;-67
2022/08/05 02:51:19;;;;;;;13.90;8.57;;;;;;;17.14;100.00;101342.94;5255906;28;20025;-67
2022/08/05 02:53:50;;;;;;;11.43;7.78;;;;;;;17.13;100.00;101335.00;5264356;28;20075;-67
2022/08/05 02:56:23;;;;;;;15.18;8.88;;;;;;;17.11;100.00;101331.63;5263271;28;20445;-67
2022/08/05 02:58:56;;;;;;;15.27;7.72;;;;;;;17.12;100.00;101328.75;5259108;28;20481;-68
2022/08/05 03:01:28;;;;;;;13.48;7.38;;;;;;;17.05;100.00;101333.91;5260535;28;20167;-68
2022/08/05 03:04:03;;;;;;;12.60;8.25;;;;;;;17.14;100.00;101320.50;5250883;28;20037;-68
2022/08/05 03:06:36;;;;;;;14.65;8.43;;;;;;;17.07;100.00;101325.66;5250500;28;20029;-67
2022/08/05 03:09:11;;;;;;;13.77;8.05;;;;;;;17.10;100.00;101329.91;5251093;28;20135;-67
2022/08/05 03:11:43;;;;;;;15.40;8.05;;;;;;;17.05;100.00;101330.34;5251785;28;20076;-67
2022/08/05 03:14:14;;;;;;;15.05;8.48;;;;;;;17.03;100.00;101335.88;5249793;28;20522;-67
2022/08/05 03:16:45;;;;;;;12.20;8.10;;;;;;;17.06;100.00;101337.44;5254147;28;20084;-67
2022/08/05 03:19:17;;;;;;;11.48;7.95;;;;;;;17.03;100.00;101351.22;5255822;28;20371;-67
2022/08/05 03:21:48;;;;;;;16.60;7.90;;;;;;;17.02;100.00;101352.22;5256000;28;20031;-67
2022/08/05 03:24:20;;;;;;;12.05;7.78;;;;;;;17.02;100.00;101358.44;5253854;28;20037;-67
2022/08/05 03:26:52;;;;;;;11.70;7.82;;;;;;;17.10;100.00;101351.47;5254139;28;20075;-67
2022/08/05 03:29:23;;;;;;;14.13;8.65;;;;;;;17.04;100.00;101364.53;5262580;28;20127;-67
2022/08/05 03:31:55;;;;;;;13.07;8.32;;;;;;;17.04;100.00;101367.22;5261263;28;20060;-67
2022/08/05 03:34:26;;;;;;;13.70;8.10;;;;;;;17.00;100.00;101360.44;5258395;28;20728;-68
2022/08/05 03:36:57;;;;;;;12.52;8.20;;;;;;;17.07;100.00;101357.16;5262383;28;20039;-67
2022/08/05 03:39:29;;;;;;;12.05;7.72;;;;;;;17.11;100.00;101370.19;5254195;28;20146;-67
2022/08/05 03:42:00;;;;;;;13.95;8.32;;;;;;;17.02;100.00;101371.91;5253866;28;20209;-67
2022/08/05 03:44:31;;;;;;;14.10;8.07;;;;;;;17.02;100.00;101365.69;5262134;28;20886;-67
2022/08/05 03:47:03;;;;;;;12.25;8.60;;;;;;;17.14;100.00;101363.66;5257708;28;20035;-67
2022/08/05 03:49:34;;;;;;;14.52;8.25;;;;;;;17.06;100.00;101353.59;5253938;28;20028;-67
2022/08/05 03:52:10;;;;;;;12.85;9.05;;;;;;;17.12;100.00;101352.16;5257285;28;20071;-67
2022/08/05 03:55:01;;;;;;;12.48;8.02;;;;;;;17.13;100.00;101353.88;5249919;28;20488;-67
2022/08/05 03:57:35;;;;;;;12.95;7.78;;;;;;;17.13;100.00;101343.94;5258587;28;20436;-67
2022/08/05 04:00:12;;;;;;;13.85;7.63;;;;;;;17.16;100.00;101337.38;5258061;28;20062;-67
2022/08/05 04:02:48;;;;;;;13.32;8.43;;;;;;;17.28;100.00;101338.91;5265197;28;20024;-67
2022/08/05 04:05:20;;;;;;;13.90;8.50;;;;;;;17.18;100.00;101341.66;5253616;28;20740;-67
2022/08/05 04:07:51;;;;;;;14.48;7.57;;;;;;;17.17;100.00;101348.03;5262172;28;20051;-67
2022/08/05 04:10:23;;;;;;;12.75;7.38;;;;;;;17.14;100.00;101334.00;5266157;28;20033;-67
2022/08/05 04:12:56;;;;;;;13.27;8.68;;;;;;;17.12;100.00;101331.44;5265537;28;20029;-67
2022/08/05 04:15:27;;;;;;;10.63;7.78;;;;;;;17.11;100.00;101334.31;5266543;28;20049;-67
2022/08/05 04:18:05;;;;;;;12.07;7.85;;;;;;;17.11;100.00;101329.75;5270186;28;20032;-67
2022/08/05 04:20:36;;;;;;;11.70;7.70;;;;;;;17.11;100.00;101342.41;5268407;28;20368;-67
2022/08/05 04:23:11;;;;;;;15.15;8.68;;;;;;;17.04;100.00;101345.66;5259837;28;20073;-67
2022/08/05 04:25:43;;;;;;;12.82;8.23;;;;;;;17.03;100.00;101338.59;5253608;28;20032;-67
2022/08/05 04:28:14;;;;;;;15.13;8.73;;;;;;;17.10;100.00;101329.91;5259546;28;20089;-67
2022/08/05 04:30:46;;;;;;;12.27;8.93;;;;;;;17.08;100.00;101329.19;5271282;28;20032;-67
2022/08/05 04:33:17;;;;;;;11.20;7.90;;;;;;;17.04;100.00;101342.13;5267080;28;20225;-67
2022/08/05 04:35:49;;;;;;;15.88;8.75;;;;;;;17.04;100.00;101340.28;5257728;28;20028;-67
2022/08/05 04:38:20;;;;;;;9.68;7.57;;;;;;;17.07;100.00;101351.75;5262517;28;20398;-67
2022/08/05 04:40:51;;;;;;;12.73;8.50;;;;;;;17.14;100.00;101358.25;5268759;28;20593;-67
2022/08/05 04:43:22;;;;;;;15.23;8.02;;;;;;;17.08;100.00;101364.25;5272131;28;20107;-67
2022/08/05 04:45:54;;;;;;;12.73;8.55;;;;;;;17.09;100.00;101365.97;5268317;28;20051;-67
2022/08/05 04:48:26;;;;;;;11.15;8.27;;;;;;;17.08;100.00;101361.56;5260792;28;20037;-67
2022/08/05 04:50:57;;;;;;;14.60;8.50;;;;;;;17.06;100.00;101361.69;5268500;28;20054;-67
2022/08/05 04:53:28;;;;;;;18.15;8.85;;;;;;;17.11;100.00;101364.81;5263224;28;20167;-67
2022/08/05 04:55:59;;;;;;;13.13;8.30;;;;;;;17.11;100.00;101354.03;5264953;28;20535;-67
2022/08/05 04:58:31;;;;;;;15.18;8.43;;;;;;;17.10;100.00;101359.56;5261659;28;20387;-67
2022/08/05 05:01:02;;;;;;;11.13;7.88;;;;;;;17.09;100.00;101361.41;5266335;28;20082;-67
2022/08/05 05:03:33;;;;;;;14.45;8.52;;;;;;;17.11;100.00;101358.56;5275158;28;20039;-67
2022/08/05 05:06:05;;;;;;;14.10;8.70;;;;;;;17.15;100.00;101362.66;5262359;28;20029;-67
2022/08/05 05:08:37;;;;;;;11.85;7.97;;;;;;;17.14;100.00;101359.09;5264554;28;20036;-67
2022/08/05 05:11:09;;;;;;;13.07;8.00;;;;;;;17.15;100.00;101363.50;5264383;28;20028;-68
2022/08/05 05:13:40;;;;;;;12.13;7.53;;;;;;;17.20;100.00;101363.06;5266436;28;20036;-67
2022/08/05 05:16:11;;;;;;;15.05;8.30;;;;;;;17.26;100.00;101357.09;5259775;28;20024;-67
2022/08/05 05:18:43;;;;;;;14.75;8.80;;;;;;;17.37;100.00;101354.22;5270961;28;20085;-67
2022/08/05 05:21:14;;;;;;;13.82;7.28;;;;;;;17.33;100.00;101363.56;5269828;28;20166;-67
2022/08/05 05:23:45;;;;;;;14.82;7.80;;;;;;;17.36;100.00;101367.84;5264905;28;20043;-67
2022/08/05 05:26:16;;;;;;;12.95;6.85;;;;;;;17.30;100.00;101369.28;5272599;28;20452;-67
2022/08/05 05:28:48;;;;;;;10.68;7.13;;;;;;;17.27;100.00;101376.81;5279564;28;20204;-67
2022/08/05 05:31:19;;;;;;;10.10;6.45;;;;;;;17.27;100.00;101372.25;5266343;28;20029;-67
2022/08/05 05:33:51;;;;;;;13.00;7.45;;;;;;;17.29;100.00;101381.06;5269832;28;20025;-67
2022/08/05 05:36:22;;;;;;;14.95;7.13;;;;;;;17.35;100.00;101379.63;5242249;28;20062;-67
2022/08/05 05:38:53;;;;;;;16.13;7.25;;;;;;;17.24;100.00;101383.38;5251292;28;20028;-67
2022/08/05 05:41:24;;;;;;;12.43;6.93;;;;;;;17.25;100.00;101396.69;5258173;28;20104;-67
2022/08/05 05:43:56;;;;;;;14.50;6.82;;;;;;;17.24;100.00;101388.75;5261284;28;20436;-67
2022/08/05 05:46:27;;;;;;;12.15;6.70;;;;;;;17.23;100.00;101398.69;5268812;28;20335;-67
2022/08/05 05:48:58;;;;;;;12.93;6.80;;;;;;;17.21;100.00;101405.22;5272188;28;20032;-67
2022/08/05 05:51:30;;;;;;;12.13;7.40;;;;;;;17.21;100.00;101402.53;5268816;28;20024;-67
2022/08/05 05:54:01;;;;;;;13.18;7.03;;;;;;;17.16;100.00;101399.41;5273722;28;20371;-67
2022/08/05 05:56:32;;;;;;;11.40;6.97;;;;;;;17.19;100.00;101405.38;5270072;28;20032;-67
2022/08/05 05:59:05;;;;;;;10.73;6.18;;;;;;;17.20;100.00;101414.28;5270795;28;20082;-67
2022/08/05 06:01:40;;;;;;;11.52;6.47;;;;;;;17.25;100.00;101415.56;5268136;28;20383;-67
2022/08/05 06:04:12;;;;;;;9.15;5.97;;;;;;;17.23;100.00;101416.72;5271781;28;20032;-66
2022/08/05 06:06:44;;;;;;;13.88;6.00;;;;;;;17.27;100.00;101422.66;5266165;28;20028;-67
2022/08/05 06:09:16;;;;;;;11.55;6.35;;;;;;;17.47;100.00;101418.03;5265813;28;20051;-67
2022/08/05 06:11:47;;;;;;;9.57;5.60;;;;;;;17.36;100.00;101408.31;5265110;28;20024;-67
2022/08/05 06:14:19;;;;;;;10.20;5.32;;;;;;;17.51;100.00;101408.63;5272049;28;20483;-67
2022/08/05 06:16:50;;;;;;;12.43;5.13;;;;;;;17.46;100.00;101417.19;5264912;28;20032;-66
2022/08/05 06:19:21;;;;;;;10.40;5.15;;;;;;;17.50;100.00;101415.91;5268908;28;20123;-67
2022/08/05 06:21:53;;;;;;;8.80;4.63;;;;;;;17.56;100.00;101417.16;5267693;28;20029;-67
2022/08/05 06:24:24;;;;;;;7.97;5.07;;;;;;;17.61;100.00;101413.00;5265602;28;20040;-67
2022/08/05 06:26:55;;;;;;;9.82;4.75;;;;;;;17.58;100.00;101418.69;5261771;28;20462;-66
2022/08/05 06:29:26;;;;;;;9.82;4.65;;;;;;;17.72;100.00;101425.47;5265008;28;20107;-67
2022/08/05 06:31:58;;;;;;;8.27;5.07;;;;;;;17.76;100.00;101426.84;5271621;28;20093;-66
2022/08/05 06:34:29;;;;;;;8.77;4.50;;;;;;;17.88;100.00;101419.44;5265873;28;20094;-67
2022/08/05 06:37:00;;;;;;;10.45;4.72;;;;;;;17.87;100.00;101420.41;5259627;28;20029;-67
2022/08/05 06:39:32;;;;;;;10.63;4.80;;;;;;;17.91;100.00;101424.53;5257729;28;20123;-66
2022/08/05 06:42:03;;;;;;;10.18;4.75;;;;;;;17.81;100.00;101432.66;5262664;28;20403;-67
2022/08/05 06:44:35;;;;;;;11.40;5.03;;;;;;;17.93;100.00;101435.16;5263231;28;20525;-66
2022/08/05 06:47:06;;;;;;;12.30;5.57;;;;;;;18.04;100.00;101443.06;5264090;28;20139;-67
2022/08/05 06:49:37;;;;;;;10.10;5.32;;;;;;;18.01;100.00;101443.38;5265911;28;20596;-67
2022/08/05 06:52:08;;;;;;;9.52;5.38;;;;;;;18.02;100.00;101447.75;5259233;28;20820;-68
2022/08/05 06:54:40;;;;;;;9.82;4.80;;;;;;;18.03;100.00;101462.97;5273373;28;20025;-69
2022/08/05 06:57:13;;;;;;;10.55;5.05;;;;;;;18.09;100.00;101461.53;5270406;28;20043;-69
2022/08/05 06:59:44;;;;;;;9.30;5.22;;;;;;;18.17;100.00;101464.31;5264215;28;20041;-69
2022/08/05 07:02:15;;;;;;;12.82;5.60;;;;;;;18.21;100.00;101457.59;5275243;28;20024;-69
2022/08/05 07:04:47;;;;;;;9.32;4.93;;;;;;;18.25;100.00;101468.94;5271111;28;20039;-69
2022/08/05 07:07:18;;;;;;;8.85;4.70;;;;;;;18.28;100.00;101466.78;5272866;28;20102;-69
2022/08/05 07:09:49;;;;;;;8.02;4.72;;;;;;;18.38;100.00;101464.03;5267625;28;20517;-69
2022/08/05 07:18:00;;;;;;;6.78;4.00;;;;;;;18.49;100.00;101466.50;5271822;28;20059;-69
2022/08/05 07:20:32;;;;;;;10.07;4.35;;;;;;;18.66;100.00;101472.03;5270128;28;20123;-68
2022/08/05 07:23:03;;;;;;;7.63;4.13;;;;;;;18.74;100.00;101474.84;5268966;28;20055;-70
2022/08/05 07:25:34;;;;;;;8.70;4.25;;;;;;;18.90;100.00;101483.09;5265123;28;20047;-69
2022/08/05 07:28:05;;;;;;;8.05;4.47;;;;;;;18.99;100.00;101487.56;5261865;28;20027;-69
2022/08/05 07:30:37;;;;;;;6.85;3.58;;;;;;;19.23;100.00;101486.06;5269418;28;20020;-69
2022/08/05 07:33:11;;;;;;;7.22;3.33;;;;;;;19.21;100.00;101490.78;5267605;28;20031;-68
2022/08/05 07:35:46;;;;;;;10.10;4.10;;;;;;;19.34;100.00;101498.47;5274804;28;20467;-68
2022/08/05 07:38:17;;;;;;;11.68;4.65;;;;;;;19.37;100.00;101498.19;5266575;28;20571;-69
2022/08/05 07:40:49;;;;;;;7.68;3.95;;;;;;;19.52;100.00;101503.81;5268954;28;20025;-69
2022/08/05 07:43:20;;;;;;;9.77;3.78;;;;;;;19.52;100.00;101509.25;5270381;28;20025;-69
2022/08/05 07:45:51;;;;;;;6.97;3.00;;;;;;;19.51;100.00;101512.97;5269136;28;20111;-69
2022/08/05 07:48:22;;;;;;;7.57;3.05;;;;;;;19.63;100.00;101506.25;5262316;28;20029;-69
2022/08/05 07:50:54;;;;;;;8.43;3.42;;;;;;;19.73;100.00;101514.31;5269085;28;20132;-69
2022/08/05 07:53:25;;;;;;;6.85;3.10;;;;;;;19.65;100.00;101520.50;5267768;28;21025;-66
2022/08/05 07:55:56;;;;;;;11.70;3.30;;;;;;;19.62;100.00;101515.41;5270073;28;20028;-69
2022/08/05 07:58:28;;;;;;;7.68;3.20;;;;;;;19.52;98.43;101515.53;5267379;28;20445;-69
2022/08/05 08:00:59;;;;;;;5.28;2.70;;;;;;;19.52;100.00;101520.06;5266568;28;20049;-69
2022/08/05 08:03:31;;;;;;;6.53;2.67;;;;;;;19.42;100.00;101516.63;5268806;28;20504;-69
2022/08/05 08:06:03;;;;;;;7.22;2.58;;;;;;;19.31;100.00;101532.13;5270540;28;20508;-69
2022/08/05 08:08:34;;;;;;;5.95;2.40;;;;;;;19.28;99.58;101528.88;5268126;28;20031;-69
2022/08/05 08:11:06;;;;;;;5.78;2.35;;;;;;;19.15;98.53;101530.13;5267632;28;20112;-69
2022/08/05 08:13:37;;;;;;;7.22;2.75;;;;;;;19.34;99.21;101526.38;5267361;28;20036;-69
2022/08/05 08:16:08;;;;;;;4.25;2.65;;;;;;;19.48;97.74;101529.53;5272043;28;20081;-69
2022/08/05 08:18:39;;;;;;;6.10;2.47;;;;;;;19.54;93.27;101540.56;5267850;28;20035;-69
2022/08/05 08:21:11;;;;;;;8.10;2.25;;;;;;;19.69;93.31;101539.97;5272073;28;20482;-69
2022/08/05 08:23:42;;;;;;;5.90;2.20;;;;;;;20.03;93.15;101548.13;5259140;28;20036;-69
2022/08/05 08:26:13;;;;;;;4.82;2.33;;;;;;;20.08;90.06;101547.66;5268930;28;20020;-69
2022/08/05 08:28:44;;;;;;;7.20;2.45;;;;;;;20.10;87.98;101554.63;5271062;28;20036;-69
2022/08/05 08:31:17;;;;;;;5.28;2.70;;;;;;;20.28;92.12;101553.66;5274072;28;20025;-69
2022/08/05 08:33:48;;;;;;;8.43;2.28;;;;;;;20.13;87.24;101554.28;5268795;28;20044;-69
2022/08/05 08:36:19;;;;;;;7.15;2.38;;;;;;;20.32;88.71;101563.16;5268878;28;20024;-69
2022/08/05 08:38:54;;;;;;;6.90;2.08;;;;;;;20.37;87.48;101558.94;5265330;28;21055;-70
2022/08/05 08:41:28;;;;;;;5.82;2.25;;;;;;;20.54;88.79;101567.16;5265545;28;20075;-70
2022/08/05 08:44:00;;;;;;;5.78;1.80;;;;;;;20.52;86.24;101572.72;5260413;28;20054;-70
2022/08/05 08:46:32;;;;;;;4.28;1.90;;;;;;;20.70;88.24;101574.50;5269655;28;20063;-70
2022/08/05 08:49:04;;;;;;;5.72;2.25;;;;;;;20.76;88.79;101571.94;5271242;28;20029;-69
2022/08/05 08:51:37;;;;;;;5.90;2.00;;;;;;;20.96;86.36;101574.38;5259325;28;20035;-69
2022/08/05 08:54:09;;;;;;;6.60;2.90;;;;;;;20.86;85.07;101585.34;5268657;28;20537;-69
2022/08/05 08:56:40;;;;;;;4.70;1.80;;;;;;;20.97;87.32;101586.06;5268277;28;20325;-69
2022/08/05 08:59:12;;;;;;;5.68;2.25;;;;;;;21.00;90.32;101594.72;5258949;28;20132;-70
2022/08/05 09:01:44;;;;;;;6.25;1.95;;;;;;;21.09;86.44;101591.00;5264261;28;20111;-70
2022/08/05 09:04:16;;;;;;;5.03;1.90;;;;;;;21.08;84.42;101593.88;5271820;28;20115;-70
2022/08/05 09:06:48;;;;;;;5.00;2.00;;;;;;;21.02;84.21;101600.84;5261833;28;20035;-70
2022/08/05 09:09:19;;;;;;;6.10;2.78;;;;;;;21.00;84.32;101607.41;5267468;28;20052;-70
2022/08/05 09:11:50;;;;;;;6.50;1.88;;;;;;;21.16;80.59;101602.03;5268069;28;20090;-70
2022/08/05 09:14:22;;;;;;;6.28;2.03;;;;;;;21.28;81.37;101600.66;5264843;28;20029;-70
2022/08/05 09:16:53;;;;;;;5.28;1.90;;;;;;;21.43;82.26;101605.41;5257339;28;20402;-70
2022/08/05 09:19:25;;;;;;;6.57;1.80;;;;;;;21.25;82.18;101606.44;5262636;28;20418;-70
2022/08/05 09:21:56;;;;;;;4.47;1.80;;;;;;;20.90;81.90;101603.03;5259240;28;20036;-70
2022/08/05 09:24:27;;;;;;;4.88;1.75;;;;;;;20.75;83.82;101608.22;5265405;28;20109;-70
2022/08/05 09:26:58;;;;;;;4.45;1.70;;;;;;;20.43;82.11;101610.81;5263624;28;20390;-70
2022/08/05 09:29:44;;;;;;;5.68;2.17;;;;;;;20.32;83.64;101615.50;5266195;28;20432;-70
2022/08/05 09:32:18;;;;;;;3.95;1.70;;;;;;;20.11;83.45;101624.03;5266613;28;20107;-70
2022/08/05 09:34:52;;;;;;;4.60;1.55;;;;;;;20.01;83.27;101617.88;5260511;28;20025;-70
2022/08/05 09:37:25;;;;;;;5.07;2.03;;;;;;;20.00;84.98;101627.03;5269737;28;22009;-70
2022/08/05 09:39:57;;;;;;;4.00;1.50;;;;;;;20.11;84.42;101625.91;5262972;28;20058;-70
2022/08/05 09:42:38;;;;;;;4.10;1.70;;;;;;;20.24;85.58;101617.34;5266512;28;20435;-70
2022/08/05 09:45:10;;;;;;;4.88;1.60;;;;;;;20.31;81.88;101624.66;5264986;28;20379;-70
2022/08/05 09:47:42;;;;;;;4.72;1.67;;;;;;;20.36;80.70;101626.88;5265171;28;20025;-70
2022/08/05 09:50:17;;;;;;;4.40;1.55;;;;;;;20.44;81.19;101629.63;5267396;28;20031;-71
2022/08/05 09:52:56;;;;;;;5.22;1.80;;;;;;;20.57;80.20;101634.56;5260367;28;20139;-71
2022/08/05 09:55:34;;;;;;;5.07;1.80;;;;;;;20.97;78.78;101630.31;5265874;28;20036;-71
2022/08/05 09:58:13;;;;;;;3.63;1.50;;;;;;;21.39;81.24;101637.50;5264257;28;20071;-71
2022/08/05 10:00:58;;;;;;;4.15;1.20;;;;;;;21.51;76.00;101640.75;5270021;28;20036;-70
2022/08/05 10:03:30;;;;;;;3.38;1.00;;;;;;;21.38;68.76;101641.22;5255179;28;20144;-70
2022/08/05 10:06:08;;;;;;;3.88;1.05;;;;;;;21.13;66.74;101645.75;5262767;28;20024;-71
2022/08/05 10:08:39;;;;;;;3.53;0.80;;;;;;;21.04;67.31;101644.09;5264908;28;20123;-71
2022/08/05 10:11:15;;;;;;;3.70;1.20;;;;;;;21.03;66.72;101640.50;5260584;28;20028;-70
2022/08/05 10:13:47;;;;;;;2.80;0.90;;;;;;;21.31;66.88;101646.47;5269381;28;20047;-71
2022/08/05 10:16:27;;;;;;;5.95;0.90;;;;;;;21.50;65.69;101648.03;5270809;28;20060;-71
2022/08/05 10:19:00;;;;;;;3.15;0.90;;;;;;;21.79;65.61;101646.66;5268641;28;20533;-71
2022/08/05 10:21:31;;;;;;;2.22;0.85;;;;;;;21.83;61.18;101648.03;5267330;28;20390;-71
2022/08/05 10:24:02;;;;;;;4.05;1.13;;;;;;;21.98;62.79;101650.03;5269247;28;20043;-71
2022/08/05 10:26:35;;;;;;;2.65;0.77;;;;;;;21.97;62.64;101661.91;5265672;28;20124;-71
2022/08/05 10:29:07;;;;;;;4.70;0.98;;;;;;;21.95;61.66;101655.81;5267312;28;20035;-71
2022/08/05 10:31:39;;;;;;;2.65;0.77;;;;;;;21.99;60.59;101668.88;5266677;28;20089;-71
2022/08/05 10:34:10;;;;;;;3.17;0.82;;;;;;;21.98;58.69;101666.34;5271607;28;20036;-71
2022/08/05 10:36:41;;;;;;;3.30;0.70;;;;;;;22.05;53.41;101662.78;5269676;28;20115;-71
2022/08/05 10:39:29;;;;;;;5.07;0.80;;;;;;;22.31;56.75;101667.13;5270244;28;20029;-70
2022/08/05 10:42:14;;;;;;;3.03;0.70;;;;;;;22.40;57.29;101663.38;5266325;28;20040;-71
2022/08/05 10:44:46;;;;;;;2.50;0.90;;;;;;;22.35;54.93;101667.66;5270058;28;20028;-71
2022/08/05 10:47:17;;;;;;;2.75;0.65;;;;;;;22.43;56.71;101659.44;5263347;28;20082;-71
2022/08/05 10:50:01;;;;;;;3.05;1.00;;;;;;;22.40;55.55;101681.53;5267656;28;20032;-71
2022/08/05 10:52:41;;;;;;;3.17;0.57;;;;;;;22.33;55.50;101678.69;5266814;28;20029;-71
2022/08/05 10:55:13;;;;;;;3.42;1.08;;;;;;;22.30;53.83;101684.47;5267819;28;20031;-71
2022/08/05 10:57:45;;;;;;;2.35;0.63;;;;;;;22.26;54.32;101681.28;5266603;28;20016;-71
2022/08/05 11:00:17;;;;;;;1.95;0.77;;;;;;;22.39;56.40;101680.69;5263761;28;20379;-71
2022/08/05 11:02:57;;;;;;;3.28;0.60;;;;;;;22.55;52.04;101682.53;5264642;28;20884;-71
2022/08/05 11:05:30;;;;;;;2.38;0.40;;;;;;;22.61;52.48;101678.22;5261545;28;20032;-71
2022/08/05 11:08:05;;;;;;;3.65;0.50;;;;;;;22.59;49.44;101688.44;5268352;28;20077;-71
2022/08/05 11:10:41;;;;;;;1.70;0.40;;;;;;;22.64;48.33;101695.06;5266275;28;20551;-71
2022/08/05 11:13:39;;;;;;;3.85;0.77;;;;;;;22.88;50.76;101699.56;5264356;28;20086;-71
2022/08/05 11:16:20;;;;;;;2.63;0.40;;;;;;;22.93;47.23;101693.56;5266622;28;20028;-71
2022/08/05 11:19:28;;;;;;;1.20;0.40;;;;;;;23.10;52.49;101691.63;5265794;28;20024;-71
2022/08/05 11:22:37;;;;;;;3.38;0.40;;;;;;;23.23;50.03;101700.06;5272305;28;20499;-71
2022/08/05 11:25:30;;;;;;;3.92;0.73;;;;;;;23.29;47.57;101693.88;5260543;28;20965;-71
2022/08/05 11:28:10;;;;;;;1.75;0.50;;;;;;;23.22;47.68;101709.28;5268677;28;20112;-71
2022/08/05 11:31:13;;;;;;;3.58;0.65;;;;;;;23.16;49.85;101704.50;5266124;28;20024;-71
2022/08/05 11:33:44;;;;;;;2.40;0.60;;;;;;;22.99;49.01;101703.75;5252510;28;20097;-71
2022/08/05 11:36:37;;;;;;;4.18;0.60;;;;;;;22.94;48.58;101702.59;5269882;28;20028;-71
2022/08/05 11:39:10;;;;;;;2.20;0.80;;;;;;;23.09;50.32;101709.00;5267794;28;20085;-71
2022/08/05 11:41:50;;;;;;;3.42;0.75;;;;;;;23.20;50.69;101708.56;5259596;28;20371;-71
2022/08/05 11:44:22;;;;;;;4.20;0.88;;;;;;;23.32;50.48;101717.19;5260552;28;20017;-73
2022/08/05 11:46:54;;;;;;;3.10;0.70;;;;;;;22.96;50.47;101720.44;5270655;28;20363;-73
2022/08/05 11:49:25;;;;;;;5.47;0.85;;;;;;;23.13;53.70;101723.09;5262818;28;20109;-73